createdAt,value
2019-03-10T05:37:40.404Z,95.07
2019-03-10T05:38:40.388Z,95.38
2019-03-10T05:39:40.391Z,95.34
2019-03-10T05:40:40.455Z,95.07
2019-03-10T05:41:40.378Z,95.03
2019-03-10T05:42:40.358Z,95.17
2019-03-10T05:43:40.343Z,95.07
2019-03-10T05:44:40.331Z,94.97
2019-03-10T05:45:40.334Z,94.62
2019-03-10T05:46:40.319Z,95.34
2019-03-10T05:47:40.292Z,94.82
2019-03-10T05:48:40.282Z,95.13
2019-03-10T05:49:40.289Z,94.92
2019-03-10T05:50:40.264Z,94.87
2019-03-10T05:51:40.260Z,94.87
2019-03-10T05:52:40.244Z,94.87
2019-03-10T05:53:40.230Z,94.72
2019-03-10T05:54:40.222Z,95.13
2019-03-10T05:55:40.393Z,95.38
2019-03-10T05:56:40.205Z,94.97
2019-03-10T05:57:40.182Z,94.87
2019-03-10T05:58:40.178Z,94.66
2019-03-10T05:59:40.162Z,95.38
2019-03-10T06:00:43.090Z,95.13
2019-03-10T06:01:40.146Z,95.90
2019-03-10T06:02:40.126Z,95.69
2019-03-10T06:03:40.122Z,96.00
2019-03-10T06:04:40.123Z,96.20
2019-03-10T06:05:40.116Z,95.80
2019-03-10T06:06:40.093Z,95.80
2019-03-10T06:07:40.113Z,95.85
2019-03-10T06:08:40.072Z,95.80
2019-03-10T06:09:40.074Z,95.85
2019-03-10T06:10:40.106Z,95.95
2019-03-10T06:11:40.043Z,95.13
2019-03-10T06:12:40.028Z,95.03
2019-03-10T06:13:40.031Z,95.34
2019-03-10T06:14:40.001Z,95.34
2019-03-10T06:15:40.000Z,95.44
2019-03-10T06:16:39.978Z,95.55
2019-03-10T06:17:39.975Z,95.23
2019-03-10T06:18:39.969Z,95.85
2019-03-10T06:19:39.950Z,95.95
2019-03-10T06:20:39.940Z,95.75
2019-03-10T06:21:39.922Z,95.75
2019-03-10T06:22:39.917Z,95.50
2019-03-10T06:23:39.904Z,96.06
2019-03-10T06:24:39.913Z,96.22
2019-03-10T06:25:39.894Z,95.95
2019-03-10T06:26:39.866Z,95.70
2019-03-10T06:27:39.875Z,95.81
2019-03-10T06:28:39.871Z,96.16
2019-03-10T06:29:39.841Z,96.22
2019-03-10T06:30:39.854Z,96.63
2019-03-10T06:31:39.826Z,96.53
2019-03-10T06:32:39.801Z,96.84
2019-03-10T06:33:39.803Z,96.22
2019-03-10T06:34:39.782Z,96.63
2019-03-10T06:35:39.790Z,96.02
2019-03-10T06:36:39.759Z,96.12
2019-03-10T06:37:39.748Z,96.22
2019-03-10T06:38:39.770Z,96.02
2019-03-10T06:39:39.731Z,96.02
2019-03-10T06:40:39.719Z,95.91
2019-03-10T06:41:39.708Z,96.17
2019-03-10T06:42:39.712Z,96.22
2019-03-10T06:43:39.685Z,96.28
2019-03-10T06:44:39.676Z,96.17
2019-03-10T06:45:39.661Z,96.33
2019-03-10T06:46:39.664Z,95.91
2019-03-10T06:47:39.681Z,96.17
2019-03-10T06:48:39.640Z,95.77
2019-03-10T06:49:39.628Z,95.81
2019-03-10T06:50:39.711Z,96.28
2019-03-10T06:51:39.595Z,96.38
2019-03-10T06:52:39.594Z,96.28
2019-03-10T06:53:39.580Z,96.28
2019-03-10T06:54:39.715Z,96.24
2019-03-10T06:55:39.554Z,96.28
2019-03-10T06:56:39.547Z,96.17
2019-03-10T06:57:39.700Z,96.08
2019-03-10T06:58:39.530Z,96.03
2019-03-10T06:59:39.508Z,96.03
2019-03-10T07:00:45.275Z,95.83
2019-03-10T07:01:39.504Z,95.83
2019-03-10T07:02:39.503Z,95.31
2019-03-10T07:03:39.473Z,95.00
2019-03-10T07:04:39.455Z,94.69
2019-03-10T07:05:39.454Z,95.67
2019-03-10T07:06:39.441Z,95.06
2019-03-10T07:07:39.477Z,95.16
2019-03-10T07:08:39.456Z,94.95
2019-03-10T07:09:39.403Z,94.95
2019-03-10T07:10:39.392Z,94.95
2019-03-10T07:11:39.389Z,95.16
2019-03-10T07:12:39.380Z,94.54
2019-03-10T07:13:39.768Z,94.60
2019-03-10T07:14:39.348Z,95.16
2019-03-10T07:15:40.146Z,95.12
2019-03-10T07:16:41.383Z,95.01
2019-03-10T07:17:39.321Z,95.12
2019-03-10T07:18:39.307Z,95.33
2019-03-10T07:19:39.289Z,95.22
2019-03-10T07:20:39.282Z,94.81
2019-03-10T07:21:39.278Z,95.12
2019-03-10T07:22:39.261Z,94.66
2019-03-10T07:23:39.306Z,94.66
2019-03-10T07:24:39.246Z,94.76
2019-03-10T07:25:39.232Z,94.83
2019-03-10T07:26:39.213Z,95.08
2019-03-10T07:27:39.209Z,94.62
2019-03-10T07:28:39.202Z,94.41
2019-03-10T07:29:39.185Z,94.62
2019-03-10T07:30:39.177Z,94.16
2019-03-10T07:31:39.173Z,94.16
2019-03-10T07:32:39.147Z,93.75
2019-03-10T07:33:39.137Z,94.37
2019-03-10T07:34:39.134Z,94.37
2019-03-10T07:35:39.114Z,93.92
2019-03-10T07:36:39.101Z,93.24
2019-03-10T07:37:39.090Z,94.01
2019-03-10T07:38:39.082Z,93.81
2019-03-10T07:39:39.086Z,94.28
2019-03-10T07:40:39.056Z,93.50
2019-03-10T07:41:39.054Z,93.56
2019-03-10T07:42:39.052Z,93.56
2019-03-10T07:43:39.032Z,93.67
2019-03-10T07:44:39.015Z,93.52
2019-03-10T07:45:39.003Z,93.52
2019-03-10T07:46:39.005Z,92.55
2019-03-10T07:47:38.987Z,92.55
2019-03-10T07:48:39.049Z,92.30
2019-03-10T07:49:38.957Z,92.10
2019-03-10T07:50:38.953Z,91.79
2019-03-10T07:51:38.938Z,92.10
2019-03-10T07:52:38.928Z,92.26
2019-03-10T07:53:38.961Z,91.95
2019-03-10T07:54:38.911Z,91.34
2019-03-10T07:55:38.903Z,91.50
2019-03-10T07:56:38.887Z,91.50
2019-03-10T07:57:38.870Z,91.19
2019-03-10T07:58:38.863Z,91.05
2019-03-10T07:59:38.848Z,91.25
2019-03-10T08:00:38.855Z,90.90
2019-03-10T08:01:38.841Z,90.39
2019-03-10T08:02:38.854Z,90.25
2019-03-10T08:03:38.821Z,90.55
2019-03-10T08:04:38.798Z,89.94
2019-03-10T08:05:38.794Z,89.63
2019-03-10T08:06:38.786Z,89.80
2019-03-10T08:07:38.770Z,89.69
2019-03-10T08:08:38.755Z,89.69
2019-03-10T08:09:38.745Z,90.41
2019-03-10T08:11:38.763Z,90.31
2019-03-10T08:12:38.721Z,89.49
2019-03-10T08:14:38.698Z,90.27
2019-03-10T08:30:38.523Z,86.28
2019-03-10T08:40:38.409Z,83.20
2019-03-10T08:51:03.667Z,80.01
2019-03-10T09:01:03.556Z,80.15
2019-03-10T09:17:03.386Z,71.60
2019-03-10T09:18:03.392Z,70.98
2019-03-10T09:20:03.357Z,71.80
2019-03-10T09:21:03.340Z,70.48
2019-03-10T09:22:03.330Z,70.08
2019-03-10T09:23:03.324Z,70.78
2019-03-10T09:24:03.315Z,70.78
2019-03-10T09:25:03.290Z,70.14
2019-03-10T09:27:03.311Z,70.24
2019-03-10T09:28:03.259Z,69.40
2019-03-10T09:29:03.264Z,68.28
2019-03-10T09:30:03.248Z,68.52
2019-03-10T09:31:03.257Z,69.94
2019-03-10T09:32:03.230Z,70.65
2019-03-10T09:33:03.205Z,70.28
2019-03-10T09:34:03.202Z,70.14
2019-03-10T09:37:03.161Z,70.17
2019-03-10T09:40:03.137Z,68.82
2019-03-10T09:41:03.141Z,68.52
2019-03-10T09:42:03.110Z,68.42
2019-03-10T09:44:03.971Z,68.01
2019-03-10T09:50:03.021Z,67.71
2019-03-10T09:52:02.992Z,66.69
2019-03-10T09:53:02.991Z,68.21
2019-03-10T09:54:02.975Z,67.60
2019-03-10T09:57:02.981Z,68.01
2019-03-10T09:58:02.927Z,68.82
2019-03-10T10:00:02.914Z,68.11
2019-03-10T10:01:02.906Z,68.92
2019-03-10T10:02:02.904Z,68.18
2019-03-10T10:04:02.874Z,67.77
2019-03-10T10:05:02.862Z,67.77
2019-03-10T10:08:02.827Z,66.86
2019-03-10T10:11:02.862Z,66.38
2019-03-10T10:12:12.967Z,66.59
2019-03-10T10:13:27.954Z,65.91
2019-03-10T10:14:27.937Z,64.86
2019-03-10T10:15:27.937Z,64.66
2019-03-10T10:16:27.919Z,65.47
2019-03-10T10:17:27.914Z,65.47
2019-03-10T10:18:27.898Z,63.61
2019-03-10T10:19:27.888Z,63.72
2019-03-10T10:20:27.869Z,65.34
2019-03-10T10:21:27.949Z,63.41
2019-03-10T10:22:27.851Z,63.51
2019-03-10T10:23:27.833Z,63.82
2019-03-10T10:24:27.819Z,63.92
2019-03-10T10:25:27.810Z,64.22
2019-03-10T10:26:27.799Z,64.45
2019-03-10T10:27:27.793Z,66.79
2019-03-10T10:28:28.793Z,67.02
2019-03-10T10:29:27.774Z,68.45
2019-03-10T10:30:30.673Z,66.24
2019-03-10T10:31:27.751Z,67.66
2019-03-10T10:32:27.732Z,69.12
2019-03-10T10:33:27.722Z,68.82
2019-03-10T10:34:27.710Z,70.58
2019-03-10T10:35:27.733Z,70.27
2019-03-10T10:36:27.689Z,70.41
2019-03-10T10:37:27.684Z,70.51
2019-03-10T10:38:27.721Z,71.32
2019-03-10T10:39:27.765Z,71.94
2019-03-10T10:40:27.661Z,71.53
2019-03-10T10:41:27.637Z,71.12
2019-03-10T10:42:27.629Z,71.97
2019-03-10T10:43:27.610Z,72.17
2019-03-10T10:44:27.605Z,71.73
2019-03-10T10:45:27.609Z,71.77
2019-03-10T10:46:27.593Z,71.97
2019-03-10T10:47:27.576Z,72.03
2019-03-10T10:48:27.566Z,71.77
2019-03-10T10:57:29.533Z,69.26
2019-03-10T10:57:29.643Z,70.24
2019-03-10T10:57:29.717Z,68.75
2019-03-10T10:58:27.446Z,68.95
2019-03-10T10:59:27.565Z,69.83
2019-03-10T11:00:28.865Z,68.21
2019-03-10T11:01:27.436Z,67.02
2019-03-10T11:02:27.404Z,67.83
2019-03-10T11:03:27.403Z,66.07
2019-03-10T11:04:27.422Z,64.65
2019-03-10T11:05:27.455Z,64.04
2019-03-10T11:06:27.361Z,63.94
2019-03-10T11:07:27.348Z,63.90
2019-03-10T11:08:27.344Z,64.28
2019-03-10T11:09:27.329Z,62.66
2019-03-10T11:10:27.334Z,61.31
2019-03-10T11:11:27.384Z,61.31
2019-03-10T11:12:27.345Z,59.76
2019-03-10T11:13:27.281Z,59.66
2019-03-10T11:14:27.290Z,59.05
2019-03-10T11:15:27.296Z,59.12
2019-03-10T11:16:27.291Z,59.73
2019-03-10T11:17:27.246Z,58.52
2019-03-10T11:18:27.230Z,57.20
2019-03-10T11:19:27.219Z,57.91
2019-03-10T11:20:27.226Z,57.80
2019-03-10T11:21:27.216Z,58.01
2019-03-10T11:22:27.181Z,57.53
2019-03-10T11:23:28.371Z,57.53
2019-03-10T11:24:27.201Z,57.29
2019-03-10T11:25:27.154Z,57.93
2019-03-10T11:26:27.149Z,57.93
2019-03-10T11:27:27.165Z,57.73
2019-03-10T11:28:27.156Z,57.50
2019-03-10T11:29:27.107Z,57.70
2019-03-10T11:30:27.104Z,58.52
2019-03-10T11:31:27.083Z,57.58
2019-03-10T11:32:27.115Z,58.08
2019-03-10T11:33:27.771Z,54.84
2019-03-10T11:34:27.055Z,56.23
2019-03-10T11:35:27.144Z,56.71
2019-03-10T11:36:27.054Z,53.57
2019-03-10T11:37:27.052Z,54.08
2019-03-10T11:38:27.011Z,53.87
2019-03-10T11:39:27.007Z,54.38
2019-03-10T11:40:27.026Z,54.86
2019-03-10T11:41:33.872Z,54.66
2019-03-10T11:42:51.774Z,53.24
2019-03-10T11:43:51.737Z,52.43
2019-03-10T11:44:51.735Z,52.94
2019-03-10T11:45:51.734Z,52.33
2019-03-10T11:46:51.721Z,53.47
2019-03-10T11:47:51.730Z,53.36
2019-03-10T11:48:51.684Z,53.49
2019-03-10T11:49:51.672Z,53.82
2019-03-10T11:50:51.715Z,54.94
2019-03-10T11:51:51.687Z,54.56
2019-03-10T11:52:51.700Z,55.37
2019-03-10T11:53:51.679Z,55.60
2019-03-10T11:54:51.628Z,55.80
2019-03-10T11:55:51.603Z,56.71
2019-03-10T11:56:51.591Z,57.65
2019-03-10T11:57:51.604Z,57.55
2019-03-10T11:58:51.583Z,57.86
2019-03-10T11:59:51.773Z,58.06
2019-03-10T12:00:52.022Z,58.09
2019-03-10T12:01:51.554Z,59.00
2019-03-10T12:02:51.600Z,58.80
2019-03-10T12:03:51.559Z,59.00
2019-03-10T12:04:51.518Z,58.70
2019-03-10T12:05:51.497Z,58.70
2019-03-10T12:06:51.492Z,59.41
2019-03-10T12:07:51.472Z,59.74
2019-03-10T12:08:51.514Z,58.80
2019-03-10T12:09:51.467Z,59.13
2019-03-10T12:10:51.455Z,59.64
2019-03-10T12:11:51.459Z,59.74
2019-03-10T12:12:51.462Z,60.05
2019-03-10T12:13:51.414Z,60.05
2019-03-10T12:14:51.395Z,61.09
2019-03-10T12:15:51.395Z,61.09
2019-03-10T12:16:52.477Z,61.90
2019-03-10T12:17:51.386Z,61.70
2019-03-10T12:18:51.362Z,61.81
2019-03-10T12:19:51.442Z,62.04
2019-03-10T12:20:51.337Z,62.10
2019-03-10T12:21:51.318Z,61.09
2019-03-10T12:22:51.319Z,60.79
2019-03-10T12:23:51.296Z,59.80
2019-03-10T12:24:51.322Z,59.57
2019-03-10T12:25:51.269Z,58.85
2019-03-10T12:26:51.275Z,57.73
2019-03-10T12:27:51.261Z,57.94
2019-03-10T12:28:51.251Z,57.61
2019-03-10T12:29:51.239Z,57.00
2019-03-10T12:30:51.215Z,56.11
2019-03-10T12:31:51.222Z,56.42
2019-03-10T12:32:51.359Z,56.72
2019-03-10T12:33:51.199Z,56.21
2019-03-10T12:34:51.175Z,57.12
2019-03-10T12:35:51.197Z,56.62
2019-03-10T12:36:51.161Z,56.51
2019-03-10T12:37:51.141Z,56.92
2019-03-10T12:38:51.131Z,57.43
2019-03-10T12:39:51.125Z,57.43
2019-03-10T12:40:51.130Z,57.23
2019-03-10T12:41:58.519Z,56.82
2019-03-10T12:43:15.970Z,57.40
2019-03-10T12:44:15.962Z,57.23
2019-03-10T12:45:21.403Z,57.53
2019-03-10T12:46:15.965Z,57.64
2019-03-10T12:47:15.937Z,57.43
2019-03-10T12:48:15.949Z,57.73
2019-03-10T12:49:15.919Z,57.73
2019-03-10T12:50:15.889Z,57.64
2019-03-10T12:51:15.890Z,58.14
2019-03-10T12:52:15.877Z,57.73
2019-03-10T12:53:15.866Z,57.84
2019-03-10T12:54:15.862Z,58.55
2019-03-10T12:55:15.847Z,58.04
2019-03-10T12:56:15.832Z,58.25
2019-03-10T12:57:15.823Z,57.76
2019-03-10T12:58:15.847Z,58.47
2019-03-10T12:59:15.796Z,58.88
2019-03-10T13:00:15.797Z,59.90
2019-03-10T13:01:15.771Z,58.78
2019-03-10T13:02:15.765Z,58.47
2019-03-10T13:03:15.827Z,57.97
2019-03-10T13:04:15.741Z,57.86
2019-03-10T13:05:15.733Z,57.66
2019-03-10T13:06:15.795Z,57.36
2019-03-10T13:07:15.717Z,57.66
2019-03-10T13:08:15.721Z,57.66
2019-03-10T13:09:15.698Z,57.36
2019-03-10T13:10:15.697Z,57.73
2019-03-10T13:11:15.667Z,56.42
2019-03-10T13:12:15.689Z,55.40
2019-03-10T13:13:15.671Z,56.59
2019-03-10T13:14:15.631Z,56.49
2019-03-10T13:15:16.190Z,56.21
2019-03-10T13:16:15.623Z,55.81
2019-03-10T13:17:15.599Z,55.70
2019-03-10T13:18:15.585Z,56.31
2019-03-10T13:19:15.574Z,55.70
2019-03-10T13:20:15.566Z,55.83
2019-03-10T13:21:15.559Z,56.44
2019-03-10T13:22:15.554Z,55.52
2019-03-10T13:23:15.555Z,55.93
2019-03-10T13:24:15.540Z,56.03
2019-03-10T13:25:15.546Z,55.63
2019-03-10T13:26:15.506Z,55.32
2019-03-10T13:27:15.493Z,55.63
2019-03-10T13:28:15.486Z,55.09
2019-03-10T13:29:15.479Z,55.20
2019-03-10T13:30:15.457Z,55.20
2019-03-10T13:31:15.510Z,54.69
2019-03-10T13:32:15.460Z,54.89
2019-03-10T13:33:15.425Z,54.61
2019-03-10T13:34:15.416Z,55.22
2019-03-10T13:35:15.408Z,55.42
2019-03-10T13:36:15.390Z,54.81
2019-03-10T13:37:15.385Z,54.20
2019-03-10T13:38:15.391Z,54.10
2019-03-10T13:39:15.368Z,53.87
2019-03-10T13:40:15.352Z,53.77
2019-03-10T13:41:15.347Z,53.67
2019-03-10T13:42:15.430Z,53.59
2019-03-10T13:43:15.326Z,54.30
2019-03-10T13:44:15.313Z,54.61
2019-03-10T13:45:15.314Z,54.51
2019-03-10T13:46:15.295Z,53.59
2019-03-10T13:47:15.287Z,54.30
2019-03-10T13:48:15.257Z,53.80
2019-03-10T13:49:15.250Z,54.10
2019-03-10T13:50:15.246Z,54.00
2019-03-10T13:51:15.231Z,54.91
2019-03-10T13:52:15.219Z,54.71
2019-03-10T13:53:15.210Z,54.41
2019-03-10T13:54:15.256Z,55.02
2019-03-10T13:55:15.210Z,55.12
2019-03-10T13:56:15.211Z,55.42
2019-03-10T13:57:15.157Z,54.91
2019-03-10T13:58:15.153Z,54.71
2019-03-10T13:59:15.148Z,55.24
2019-03-10T14:00:15.152Z,55.55
2019-03-10T14:01:15.135Z,56.57
2019-03-10T14:02:15.117Z,57.20
2019-03-10T14:03:15.101Z,56.70
2019-03-10T14:04:15.092Z,57.08
2019-03-10T14:05:15.074Z,56.98
2019-03-10T14:06:15.066Z,57.08
2019-03-10T14:07:15.053Z,57.18
2019-03-10T14:08:15.036Z,56.98
2019-03-10T14:09:15.060Z,57.66
2019-03-10T14:10:15.021Z,57.28
2019-03-10T14:11:15.023Z,56.87
2019-03-10T14:12:15.030Z,56.44
2019-03-10T14:13:15.002Z,56.34
2019-03-10T14:14:14.984Z,56.95
2019-03-10T14:15:14.968Z,57.05
2019-03-10T14:16:14.964Z,56.14
2019-03-10T14:17:14.949Z,56.95
2019-03-10T14:18:14.950Z,56.14
2019-03-10T14:19:14.938Z,56.42
2019-03-10T14:20:14.918Z,56.51
2019-03-10T14:21:14.934Z,57.15
2019-03-10T14:22:14.893Z,57.59
2019-03-10T14:23:14.878Z,58.33
2019-03-10T14:24:14.974Z,60.29
2019-03-10T14:25:14.862Z,61.64
2019-03-10T14:26:14.853Z,63.91
2019-03-10T14:27:14.833Z,65.27
2019-03-10T14:28:14.830Z,66.39
2019-03-10T14:29:14.848Z,66.32
2019-03-10T14:30:20.032Z,63.56
2019-03-10T14:31:14.814Z,64.11
2019-03-10T14:32:14.783Z,64.03
2019-03-10T14:33:14.791Z,62.12
2019-03-10T14:34:14.758Z,61.54
2019-03-10T14:35:14.748Z,62.66
2019-03-10T14:36:14.734Z,61.13
2019-03-10T14:37:14.744Z,61.74
2019-03-10T14:38:14.838Z,60.82
2019-03-10T14:39:14.706Z,60.18
2019-03-10T14:40:14.736Z,60.38
2019-03-10T14:41:14.693Z,59.67
2019-03-10T14:42:14.671Z,60.11
2019-03-10T14:43:14.781Z,59.80
2019-03-10T14:44:14.657Z,60.21
2019-03-10T14:45:14.645Z,60.62
2019-03-10T14:46:14.648Z,60.52
2019-03-10T14:47:14.667Z,61.23
2019-03-10T14:48:14.606Z,62.07
2019-03-10T14:49:22.573Z,62.59
2019-03-10T14:50:39.877Z,61.87
2019-03-10T14:51:39.876Z,61.77
2019-03-10T14:52:39.840Z,61.16
2019-03-10T14:53:40.042Z,61.26
2019-03-10T14:54:39.820Z,61.16
2019-03-10T14:55:39.823Z,61.16
2019-03-10T14:56:39.794Z,61.46
2019-03-10T14:57:39.788Z,60.24
2019-03-10T14:58:39.774Z,58.98
2019-03-10T14:59:39.770Z,59.62
2019-03-10T15:00:39.755Z,58.06
2019-03-10T15:01:39.744Z,57.75
2019-03-10T15:02:39.753Z,58.50
2019-03-10T15:03:39.742Z,58.06
2019-03-10T15:04:39.708Z,58.16
2019-03-10T15:05:39.718Z,57.86
2019-03-10T15:06:39.702Z,58.47
2019-03-10T15:07:39.678Z,57.86
2019-03-10T15:08:39.680Z,57.96
2019-03-10T15:09:39.658Z,57.86
2019-03-10T15:10:39.647Z,58.39
2019-03-10T15:11:39.642Z,59.70
2019-03-10T15:12:39.628Z,61.54
2019-03-10T15:13:39.626Z,62.07
2019-03-10T15:14:39.632Z,62.28
2019-03-10T15:15:39.613Z,63.31
2019-03-10T15:16:39.576Z,63.74
2019-03-10T15:17:39.571Z,64.12
2019-03-10T15:18:39.559Z,64.87
2019-03-10T15:19:39.544Z,65.61
2019-03-10T15:20:39.545Z,65.72
2019-03-10T15:21:39.549Z,65.64
2019-03-10T15:22:39.542Z,65.13
2019-03-10T15:23:40.514Z,65.75
2019-03-10T15:24:39.496Z,65.03
2019-03-10T15:25:39.599Z,63.63
2019-03-10T15:26:45.683Z,63.39
2019-03-10T15:28:04.646Z,61.88
2019-03-10T15:29:04.649Z,62.78
2019-03-10T15:30:04.627Z,61.99
2019-03-10T15:31:04.613Z,60.24
2019-03-10T15:32:04.610Z,57.99
2019-03-10T15:33:04.594Z,59.32
2019-03-10T15:34:04.578Z,61.27
2019-03-10T15:35:04.572Z,63.12
2019-03-10T15:37:04.558Z,65.27
2019-03-10T15:38:04.540Z,66.29
2019-03-10T15:39:04.526Z,66.22
2019-03-10T15:40:04.510Z,66.63
2019-03-10T15:41:04.505Z,67.18
2019-03-10T15:42:04.505Z,67.27
2019-03-10T15:43:04.481Z,68.40
2019-03-10T15:44:04.474Z,69.05
2019-03-10T15:45:04.466Z,68.75
2019-03-10T15:46:04.444Z,68.75
2019-03-10T15:47:04.491Z,69.26
2019-03-10T15:48:04.442Z,69.05
2019-03-10T15:50:04.413Z,68.81
2019-03-10T15:51:04.407Z,68.71
2019-03-10T15:52:04.383Z,69.23
2019-03-10T15:53:04.381Z,68.64
2019-03-10T15:56:04.339Z,67.38
2019-03-10T15:57:04.326Z,66.87
2019-03-10T15:58:04.394Z,66.87
2019-03-10T15:59:04.301Z,67.72
2019-03-10T16:00:04.319Z,67.31
2019-03-10T16:01:04.344Z,67.72
2019-03-10T16:02:04.269Z,68.43
2019-03-10T16:03:04.325Z,68.54
2019-03-10T16:04:04.439Z,69.05
2019-03-10T16:05:04.250Z,68.75
2019-03-10T16:06:04.231Z,69.15
2019-03-10T16:07:04.230Z,69.50
2019-03-10T16:08:04.204Z,69.39
2019-03-10T16:10:04.198Z,69.90
2019-03-10T16:11:04.193Z,70.22
2019-03-10T16:12:04.168Z,71.07
2019-03-10T16:13:04.169Z,70.86
2019-03-10T16:14:04.143Z,71.58
2019-03-10T16:15:04.125Z,72.50
2019-03-10T16:16:04.116Z,73.74
2019-03-10T16:17:04.120Z,74.08
2019-03-10T16:18:04.101Z,75.52
2019-03-10T16:19:04.093Z,75.83
2019-03-10T16:20:04.076Z,76.69
2019-03-10T16:21:04.086Z,78.33
2019-03-10T16:22:04.099Z,77.85
2019-03-10T16:23:04.041Z,80.12
2019-03-10T16:25:04.022Z,79.94
2019-03-10T16:26:04.069Z,80.77
2019-03-10T16:29:04.089Z,82.76
2019-03-10T16:30:03.967Z,82.66
2019-03-10T16:31:03.968Z,82.59
2019-03-10T16:32:03.937Z,82.59
2019-03-10T16:33:03.973Z,80.98
2019-03-10T16:34:03.979Z,81.91
2019-03-10T16:35:03.905Z,81.12
2019-03-10T16:36:03.923Z,81.40
2019-03-10T16:37:04.060Z,80.61
2019-03-10T16:39:03.869Z,81.03
2019-03-10T16:41:03.852Z,80.71
2019-03-10T16:43:03.839Z,80.54
2019-03-10T16:47:03.780Z,81.82
2019-03-10T16:49:03.759Z,81.51
2019-03-10T16:51:03.738Z,81.61
2019-03-10T16:55:03.701Z,81.82
2019-03-10T16:58:03.669Z,80.79
2019-03-10T17:03:03.614Z,81.20
2019-03-10T17:04:03.597Z,81.71
2019-03-10T17:05:03.586Z,81.41
2019-03-10T17:09:04.785Z,81.61
2019-03-10T17:13:03.502Z,81.41
2019-03-10T17:14:03.493Z,81.61
2019-03-10T17:15:03.509Z,81.55
2019-03-10T17:17:03.500Z,81.82
2019-03-10T17:18:03.452Z,82.34
2019-03-10T17:19:03.430Z,81.20
2019-03-10T17:20:03.431Z,81.51
2019-03-10T17:21:03.473Z,81.41
2019-03-10T17:22:03.402Z,81.71
2019-03-10T17:23:03.393Z,81.51
2019-03-10T17:24:03.381Z,81.20
2019-03-10T17:25:03.382Z,81.51
2019-03-10T17:26:03.382Z,81.45
2019-03-10T17:27:04.889Z,80.99
